Time;durP1;ratioP1;P1;durP2;ratioP2;P2;SDS_P1;SDS_P2;PMS_P1;PMS_P2;Temp;Humidity;BMP_temperature;BMP_pressure;BME280_temperature;BME280_humidity;BME280_pressure;Samples;Min_cycle;Max_cycle;Signal;HPM_P1;HPM_P2
2022/04/18 00:00:04;;;;;;;16.20;13.48;;;;;;;;;;5019712;28;20431;-83
2022/04/18 00:02:30;;;;;;;13.77;12.27;;;;;;;;;;5021153;28;20481;-85
2022/04/18 00:04:56;;;;;;;17.23;13.68;;;;;;;;;;5021798;28;20489;-85
2022/04/18 00:07:24;;;;;;;19.55;13.32;;;;;;;;;;5016480;28;20421;-83
2022/04/18 00:09:50;;;;;;;15.43;13.20;;;;;;;;;;5017473;28;20426;-82
2022/04/18 00:12:16;;;;;;;14.18;12.40;;;;;;;;;;5018403;28;20432;-83
2022/04/18 00:14:44;;;;;;;15.80;12.80;;;;;;;;;;5019283;28;20980;-83
2022/04/18 00:17:10;;;;;;;15.68;11.85;;;;;;;;;;5017947;28;20440;-83
2022/04/18 00:19:37;;;;;;;13.40;11.83;;;;;;;;;;5017986;28;21149;-84
2022/04/18 00:22:03;;;;;;;15.20;12.20;;;;;;;;;;5019073;28;20421;-84
2022/04/18 00:24:31;;;;;;;15.60;12.10;;;;;;;;;;5017146;28;20840;-84
2022/04/18 00:26:57;;;;;;;14.15;11.52;;;;;;;;;;5019154;28;20444;-84
2022/04/18 00:29:23;;;;;;;14.17;11.43;;;;;;;;;;5016983;28;20813;-83
2022/04/18 00:31:50;;;;;;;15.45;12.15;;;;;;;;;;5022493;28;20434;-83
2022/04/18 00:34:16;;;;;;;15.43;11.63;;;;;;;;;;5026991;28;20508;-83
2022/04/18 00:36:43;;;;;;;12.43;11.00;;;;;;;;;;5021859;28;20491;-83
2022/04/18 00:39:09;;;;;;;15.13;12.60;;;;;;;;;;5021132;28;20551;-83
2022/04/18 00:41:37;;;;;;;12.65;11.32;;;;;;;;;;5021267;28;20427;-84
2022/04/18 00:44:03;;;;;;;13.13;11.10;;;;;;;;;;5023662;28;20490;-83
2022/04/18 00:46:30;;;;;;;14.70;11.03;;;;;;;;;;5021827;28;20466;-83
2022/04/18 00:48:56;;;;;;;15.63;11.32;;;;;;;;;;5020829;28;20437;-83
2022/04/18 00:51:24;;;;;;;14.10;10.80;;;;;;;;;;5021738;28;20479;-84
2022/04/18 00:53:53;;;;;;;13.30;10.80;;;;;;;;;;5021655;28;20795;-83
2022/04/18 00:56:19;;;;;;;13.38;10.40;;;;;;;;;;5020211;28;20494;-83
2022/04/18 00:58:48;;;;;;;16.90;12.48;;;;;;;;;;5021687;28;20914;-82
2022/04/18 01:01:14;;;;;;;12.85;10.77;;;;;;;;;;5019312;28;20421;-83
2022/04/18 01:03:40;;;;;;;15.02;10.20;;;;;;;;;;5023469;28;20444;-83
2022/04/18 01:06:07;;;;;;;13.70;11.10;;;;;;;;;;5019523;28;20492;-83
2022/04/18 01:08:34;;;;;;;15.43;10.88;;;;;;;;;;5015720;28;20936;-83
2022/04/18 01:11:00;;;;;;;12.97;10.90;;;;;;;;;;5013971;28;20477;-83
2022/04/18 01:13:27;;;;;;;13.82;11.27;;;;;;;;;;5014625;28;20440;-83
2022/04/18 01:15:55;;;;;;;14.10;10.85;;;;;;;;;;5012291;28;20494;-83
2022/04/18 01:18:22;;;;;;;16.60;11.55;;;;;;;;;;5019840;28;20941;-83
2022/04/18 01:20:50;;;;;;;13.05;10.80;;;;;;;;;;5018502;28;20434;-83
2022/04/18 01:23:17;;;;;;;18.10;11.52;;;;;;;;;;5020009;28;20455;-83
2022/04/18 01:31:12;;;;;;;11.73;10.32;;;;;;;;;;5021550;28;20572;-83
2022/04/18 01:33:38;;;;;;;13.13;10.57;;;;;;;;;;5021918;28;20545;-83
2022/04/18 01:36:06;;;;;;;13.32;10.60;;;;;;;;;;5018407;28;20404;-82
2022/04/18 01:38:32;;;;;;;13.55;10.57;;;;;;;;;;5018934;28;20448;-83
2022/04/18 01:40:58;;;;;;;12.45;9.80;;;;;;;;;;5018054;28;20436;-83
2022/04/18 01:43:25;;;;;;;14.18;11.10;;;;;;;;;;5017149;28;20432;-83
2022/04/18 01:45:51;;;;;;;12.98;10.40;;;;;;;;;;5019838;28;20434;-82
2022/04/18 01:48:17;;;;;;;13.38;10.90;;;;;;;;;;5020638;28;20432;-82
2022/04/18 01:50:43;;;;;;;13.60;11.10;;;;;;;;;;5018249;28;20436;-82
2022/04/18 01:53:12;;;;;;;14.57;10.75;;;;;;;;;;5017945;28;20429;-83
2022/04/18 01:55:38;;;;;;;13.73;10.55;;;;;;;;;;5020657;28;20434;-83
2022/04/18 01:58:05;;;;;;;14.15;10.20;;;;;;;;;;5017257;28;20846;-82
2022/04/18 02:00:31;;;;;;;13.20;10.38;;;;;;;;;;5017180;28;20426;-83
2022/04/18 02:02:58;;;;;;;11.02;9.40;;;;;;;;;;5018151;28;20479;-82
2022/04/18 02:05:24;;;;;;;15.18;10.98;;;;;;;;;;5020794;28;20440;-83
2022/04/18 02:07:50;;;;;;;13.07;10.07;;;;;;;;;;5013349;28;20949;-83
2022/04/18 02:10:18;;;;;;;13.15;10.63;;;;;;;;;;5015435;28;20440;-82
2022/04/18 02:12:44;;;;;;;14.23;10.40;;;;;;;;;;5015556;28;20437;-81
2022/04/18 02:15:11;;;;;;;12.43;10.00;;;;;;;;;;5020154;28;20499;-83
2022/04/18 02:17:37;;;;;;;11.40;9.80;;;;;;;;;;5019530;28;20859;-83
2022/04/18 02:20:04;;;;;;;13.13;10.70;;;;;;;;;;5019407;28;20988;-82
2022/04/18 02:22:31;;;;;;;13.55;10.68;;;;;;;;;;5017905;28;20428;-82
2022/04/18 02:24:57;;;;;;;11.93;10.20;;;;;;;;;;5019867;28;20514;-83
2022/04/18 02:27:25;;;;;;;13.02;9.50;;;;;;;;;;5018552;28;20802;-82
2022/04/18 02:29:51;;;;;;;14.20;10.35;;;;;;;;;;5017529;28;20861;-83
2022/04/18 02:35:01;;;;;;;12.83;9.47;;;;;;;;;;5022381;28;20871;-83
2022/04/18 02:37:28;;;;;;;13.38;9.02;;;;;;;;;;5018740;28;20437;-83
2022/04/18 02:39:54;;;;;;;12.07;9.55;;;;;;;;;;5018836;28;20905;-82
2022/04/18 02:42:20;;;;;;;13.70;9.43;;;;;;;;;;5018630;28;20515;-83
2022/04/18 02:44:49;;;;;;;13.32;9.77;;;;;;;;;;5016358;28;20439;-82
2022/04/18 02:47:15;;;;;;;12.57;9.15;;;;;;;;;;5015750;28;20431;-83
2022/04/18 02:49:41;;;;;;;13.80;9.45;;;;;;;;;;5015982;28;20435;-83
2022/04/18 02:52:08;;;;;;;12.20;9.65;;;;;;;;;;5019326;28;20456;-83
2022/04/18 02:54:34;;;;;;;11.97;9.27;;;;;;;;;;5018586;28;20451;-82
2022/04/18 02:57:00;;;;;;;13.30;9.23;;;;;;;;;;5016684;28;20439;-82
2022/04/18 02:59:27;;;;;;;11.97;9.07;;;;;;;;;;5015295;28;20506;-82
2022/04/18 03:01:54;;;;;;;13.35;9.73;;;;;;;;;;5019062;28;20954;-82
2022/04/18 03:04:20;;;;;;;15.65;9.70;;;;;;;;;;5017200;28;20485;-82
2022/04/18 03:06:47;;;;;;;10.80;8.70;;;;;;;;;;5018844;28;20432;-82
2022/04/18 03:09:15;;;;;;;10.70;8.73;;;;;;;;;;5017104;28;20440;-82
2022/04/18 03:11:41;;;;;;;14.23;10.20;;;;;;;;;;5021158;28;22087;-82
2022/04/18 03:14:07;;;;;;;11.55;8.70;;;;;;;;;;5018598;28;20544;-82
2022/04/18 03:16:34;;;;;;;13.65;9.50;;;;;;;;;;5021567;28;20451;-83
2022/04/18 03:19:01;;;;;;;12.52;9.32;;;;;;;;;;5022255;28;20438;-82
2022/04/18 03:21:27;;;;;;;13.88;9.98;;;;;;;;;;5019951;28;20424;-83
2022/04/18 03:23:54;;;;;;;12.98;9.90;;;;;;;;;;5020421;28;20455;-82
2022/04/18 03:26:20;;;;;;;12.13;10.05;;;;;;;;;;5022939;28;20432;-83
2022/04/18 03:28:46;;;;;;;12.20;9.30;;;;;;;;;;5019077;28;20470;-82
2022/04/18 03:31:12;;;;;;;15.07;9.80;;;;;;;;;;5019709;28;20482;-83
2022/04/18 03:33:39;;;;;;;14.93;9.77;;;;;;;;;;5024438;28;20436;-83
2022/04/18 03:41:34;;;;;;;11.65;9.88;;;;;;;;;;5020847;28;20493;-83
2022/04/18 03:44:00;;;;;;;13.70;9.73;;;;;;;;;;5021348;28;20485;-82
2022/04/18 03:46:27;;;;;;;13.23;9.65;;;;;;;;;;5021211;28;20419;-82
2022/04/18 03:48:54;;;;;;;15.10;10.30;;;;;;;;;;5020838;28;20846;-83
2022/04/18 03:51:21;;;;;;;15.73;9.60;;;;;;;;;;5018564;28;20415;-82
2022/04/18 03:53:47;;;;;;;13.20;9.52;;;;;;;;;;5019505;28;20431;-82
2022/04/18 03:56:14;;;;;;;12.35;9.70;;;;;;;;;;5021816;28;20415;-82
2022/04/18 03:58:40;;;;;;;13.68;9.98;;;;;;;;;;5018710;28;20475;-82
2022/04/18 04:01:06;;;;;;;13.80;10.10;;;;;;;;;;5018015;28;20413;-82
2022/04/18 04:03:32;;;;;;;14.43;10.45;;;;;;;;;;5019089;28;20434;-82
2022/04/18 04:05:59;;;;;;;12.13;9.60;;;;;;;;;;5020929;28;20992;-83
2022/04/18 04:08:28;;;;;;;14.27;10.85;;;;;;;;;;5017519;28;20450;-82
2022/04/18 04:10:54;;;;;;;13.57;10.25;;;;;;;;;;5018888;28;20438;-83
2022/04/18 04:13:20;;;;;;;13.45;9.88;;;;;;;;;;5020102;28;20426;-83
2022/04/18 04:15:47;;;;;;;12.10;9.60;;;;;;;;;;5019449;28;20478;-82
2022/04/18 04:18:13;;;;;;;12.85;9.75;;;;;;;;;;5017487;28;20433;-82
2022/04/18 04:20:39;;;;;;;15.80;11.00;;;;;;;;;;5019602;28;20453;-82
2022/04/18 04:23:05;;;;;;;12.85;9.60;;;;;;;;;;5019779;28;20420;-82
2022/04/18 04:25:33;;;;;;;14.90;10.50;;;;;;;;;;5021554;28;20862;-82
2022/04/18 04:27:59;;;;;;;13.40;10.70;;;;;;;;;;5019639;28;20453;-80
2022/04/18 04:30:25;;;;;;;12.95;10.32;;;;;;;;;;5016910;28;20444;-82
2022/04/18 04:32:52;;;;;;;15.70;10.65;;;;;;;;;;5017612;28;21207;-82
2022/04/18 04:35:18;;;;;;;15.13;10.50;;;;;;;;;;5023227;28;20452;-82
2022/04/18 04:37:44;;;;;;;12.05;10.07;;;;;;;;;;5019315;28;20459;-80
2022/04/18 04:40:11;;;;;;;13.98;11.10;;;;;;;;;;5019031;28;20452;-82
2022/04/18 04:42:39;;;;;;;12.73;10.20;;;;;;;;;;5019035;28;20426;-82
2022/04/18 04:45:06;;;;;;;13.87;10.53;;;;;;;;;;5020717;28;20862;-82
2022/04/18 04:47:32;;;;;;;13.05;10.10;;;;;;;;;;5016976;28;20427;-83
2022/04/18 04:49:58;;;;;;;11.82;9.20;;;;;;;;;;5020077;28;20992;-82
2022/04/18 04:52:25;;;;;;;13.48;9.98;;;;;;;;;;5019382;28;20423;-82
2022/04/18 04:54:51;;;;;;;13.07;9.70;;;;;;;;;;5021549;28;20476;-82
2022/04/18 04:57:17;;;;;;;16.07;10.80;;;;;;;;;;5019278;28;20850;-84
2022/04/18 04:59:45;;;;;;;13.82;9.80;;;;;;;;;;5015689;28;20424;-83
2022/04/18 05:02:11;;;;;;;12.73;9.68;;;;;;;;;;5015019;28;20428;-83
2022/04/18 05:04:37;;;;;;;12.75;10.50;;;;;;;;;;5018341;28;21029;-83
2022/04/18 05:07:04;;;;;;;13.98;10.10;;;;;;;;;;5019456;28;20430;-82
2022/04/18 05:09:30;;;;;;;13.50;9.57;;;;;;;;;;5017201;28;20428;-82
2022/04/18 05:11:57;;;;;;;13.20;10.20;;;;;;;;;;5019485;28;20443;-82
2022/04/18 05:14:23;;;;;;;16.10;10.40;;;;;;;;;;5016448;28;20434;-82
2022/04/18 05:16:50;;;;;;;13.10;10.13;;;;;;;;;;5016514;28;21001;-82
2022/04/18 05:19:17;;;;;;;11.73;10.00;;;;;;;;;;5017286;28;20428;-83
2022/04/18 05:21:43;;;;;;;12.10;9.18;;;;;;;;;;5018975;28;20765;-83
2022/04/18 05:24:09;;;;;;;12.82;9.35;;;;;;;;;;5017614;28;20495;-82
2022/04/18 05:26:35;;;;;;;12.57;9.52;;;;;;;;;;5017422;28;20430;-83
2022/04/18 05:29:01;;;;;;;13.10;10.02;;;;;;;;;;5014413;28;20434;-82
2022/04/18 05:31:28;;;;;;;12.18;9.23;;;;;;;;;;5017944;28;21015;-82
2022/04/18 05:33:55;;;;;;;14.50;10.20;;;;;;;;;;5017628;28;20511;-83
2022/04/18 05:36:22;;;;;;;11.95;9.25;;;;;;;;;;5019724;28;20444;-83
2022/04/18 05:38:48;;;;;;;12.98;10.00;;;;;;;;;;5016715;28;20424;-82
2022/04/18 05:41:14;;;;;;;14.00;10.45;;;;;;;;;;5017900;28;20494;-82
2022/04/18 05:43:40;;;;;;;12.18;9.50;;;;;;;;;;5017909;28;20431;-82
2022/04/18 05:46:06;;;;;;;12.30;9.95;;;;;;;;;;5016910;28;20409;-82
2022/04/18 05:48:33;;;;;;;10.83;9.07;;;;;;;;;;5016259;28;20485;-82
2022/04/18 05:51:00;;;;;;;12.25;9.40;;;;;;;;;;5014887;28;20439;-82
2022/04/18 05:53:27;;;;;;;13.32;10.27;;;;;;;;;;5016444;28;20467;-81
2022/04/18 05:55:53;;;;;;;14.93;9.73;;;;;;;;;;5017698;28;20438;-81
2022/04/18 05:58:19;;;;;;;14.32;9.50;;;;;;;;;;5016068;28;20441;-82
2022/04/18 06:00:45;;;;;;;15.02;9.77;;;;;;;;;;5014957;28;20428;-82
2022/04/18 06:03:12;;;;;;;14.27;9.85;;;;;;;;;;5014991;28;20512;-84
2022/04/18 06:05:38;;;;;;;12.25;9.80;;;;;;;;;;5015211;28;20436;-84
2022/04/18 06:08:06;;;;;;;12.57;10.40;;;;;;;;;;5013849;28;20570;-84
2022/04/18 06:10:33;;;;;;;17.90;11.82;;;;;;;;;;5010841;28;20510;-87
2022/04/18 06:12:59;;;;;;;13.68;10.20;;;;;;;;;;5014135;28;20452;-86
2022/04/18 06:15:26;;;;;;;12.65;9.30;;;;;;;;;;5018649;28;20407;-85
2022/04/18 06:17:52;;;;;;;13.73;9.73;;;;;;;;;;5013993;28;20841;-83
2022/04/18 06:20:19;;;;;;;15.27;10.40;;;;;;;;;;5017752;28;20988;-84
2022/04/18 06:22:45;;;;;;;15.65;10.35;;;;;;;;;;5013312;28;20441;-84
2022/04/18 06:25:13;;;;;;;14.43;9.88;;;;;;;;;;5017516;28;20432;-83
2022/04/18 06:27:39;;;;;;;13.70;9.88;;;;;;;;;;5013000;28;20424;-84
2022/04/18 06:30:05;;;;;;;14.88;10.98;;;;;;;;;;5009419;28;20421;-84
2022/04/18 06:32:35;;;;;;;15.57;11.25;;;;;;;;;;5011564;28;20429;-84
2022/04/18 06:35:01;;;;;;;14.80;10.35;;;;;;;;;;5013439;28;20921;-84
2022/04/18 06:37:28;;;;;;;14.07;10.60;;;;;;;;;;5019912;28;20998;-83
2022/04/18 06:39:54;;;;;;;17.30;12.50;;;;;;;;;;5019459;28;20435;-85
2022/04/18 06:42:22;;;;;;;16.85;11.90;;;;;;;;;;5017663;28;20436;-85
2022/04/18 06:44:48;;;;;;;16.52;12.77;;;;;;;;;;5024124;28;20455;-84
2022/04/18 06:47:14;;;;;;;15.52;12.40;;;;;;;;;;5025831;28;20420;-83
2022/04/18 06:49:41;;;;;;;17.15;11.90;;;;;;;;;;5023179;28;20862;-83
2022/04/18 06:52:07;;;;;;;18.17;13.00;;;;;;;;;;5025148;28;20922;-84
2022/04/18 06:54:33;;;;;;;20.98;13.10;;;;;;;;;;5021577;28;20777;-86
2022/04/18 06:56:58;;;;;;;20.52;13.40;;;;;;;;;;5018977;28;20429;-86
2022/04/18 06:59:26;;;;;;;22.67;13.50;;;;;;;;;;5021749;28;20420;-84
2022/04/18 07:01:52;;;;;;;22.48;13.35;;;;;;;;;;5019725;28;20423;-83
2022/04/18 07:04:18;;;;;;;20.85;14.02;;;;;;;;;;5019895;28;20434;-84
2022/04/18 07:06:45;;;;;;;23.47;13.80;;;;;;;;;;5021721;28;20428;-84
2022/04/18 07:09:11;;;;;;;19.08;13.63;;;;;;;;;;5022166;28;20436;-84
2022/04/18 07:11:37;;;;;;;19.42;12.55;;;;;;;;;;5019365;28;20442;-84
2022/04/18 07:14:04;;;;;;;17.70;13.40;;;;;;;;;;5020023;28;20870;-84
2022/04/18 07:16:31;;;;;;;17.60;11.80;;;;;;;;;;5020400;28;20851;-83
2022/04/18 07:18:58;;;;;;;18.05;12.43;;;;;;;;;;5022555;28;20829;-84
2022/04/18 07:21:25;;;;;;;24.17;13.40;;;;;;;;;;5021823;28;22640;-84
2022/04/18 07:23:51;;;;;;;20.65;13.05;;;;;;;;;;5019508;28;20816;-85
2022/04/18 07:26:17;;;;;;;24.25;14.68;;;;;;;;;;5021683;28;20418;-85
2022/04/18 07:28:43;;;;;;;27.52;15.77;;;;;;;;;;5021198;28;21203;-85
2022/04/18 07:31:10;;;;;;;24.70;14.60;;;;;;;;;;5018118;28;21205;-85
2022/04/18 07:33:37;;;;;;;25.95;15.95;;;;;;;;;;5023347;28;20995;-84
2022/04/18 07:36:04;;;;;;;29.03;17.27;;;;;;;;;;5021948;28;20419;-84
2022/04/18 07:41:14;;;;;;;27.10;16.20;;;;;;;;;;5022730;28;20422;-84
2022/04/18 07:43:40;;;;;;;27.00;15.70;;;;;;;;;;5021901;28;20441;-85
2022/04/18 07:46:06;;;;;;;23.00;15.35;;;;;;;;;;5025145;28;20422;-85
2022/04/18 07:48:32;;;;;;;21.58;14.32;;;;;;;;;;5022273;28;20473;-86
2022/04/18 07:53:44;;;;;;;23.43;12.70;;;;;;;;;;5022591;28;20405;-83
2022/04/18 07:56:10;;;;;;;20.83;13.40;;;;;;;;;;5021521;28;20420;-84
2022/04/18 07:58:36;;;;;;;17.67;12.63;;;;;;;;;;5020231;28;20463;-84
2022/04/18 08:01:03;;;;;;;17.35;11.65;;;;;;;;;;5022692;28;21027;-84
2022/04/18 08:03:29;;;;;;;21.35;12.20;;;;;;;;;;5024819;28;20995;-84
2022/04/18 08:05:56;;;;;;;18.13;11.63;;;;;;;;;;5021960;28;20445;-84
2022/04/18 08:08:23;;;;;;;16.75;11.75;;;;;;;;;;5018913;28;20523;-84
2022/04/18 08:10:50;;;;;;;20.02;11.35;;;;;;;;;;5022500;28;20433;-84
2022/04/18 08:13:16;;;;;;;15.20;10.63;;;;;;;;;;5020348;28;20436;-84
2022/04/18 08:15:43;;;;;;;15.80;9.98;;;;;;;;;;5022977;28;20591;-85
2022/04/18 08:18:09;;;;;;;16.20;10.20;;;;;;;;;;5023329;28;20424;-84
2022/04/18 08:20:35;;;;;;;17.90;9.48;;;;;;;;;;5022982;28;20419;-84
2022/04/18 08:23:01;;;;;;;11.95;8.50;;;;;;;;;;5023435;28;20762;-84
2022/04/18 08:25:29;;;;;;;17.05;10.23;;;;;;;;;;5023270;28;20827;-84
2022/04/18 08:27:55;;;;;;;14.65;10.23;;;;;;;;;;5022942;28;20511;-84
2022/04/18 08:30:22;;;;;;;13.52;10.32;;;;;;;;;;5019583;28;20443;-85
2022/04/18 08:32:48;;;;;;;13.43;10.00;;;;;;;;;;5015527;28;20497;-84
2022/04/18 08:35:14;;;;;;;16.20;9.80;;;;;;;;;;5013021;28;20894;-86
2022/04/18 08:37:40;;;;;;;15.13;10.07;;;;;;;;;;5019026;28;20439;-84
2022/04/18 08:40:09;;;;;;;14.00;9.60;;;;;;;;;;5017874;28;20443;-86
2022/04/18 08:42:37;;;;;;;13.38;9.32;;;;;;;;;;5018934;28;20521;-86
2022/04/18 08:45:04;;;;;;;9.80;6.83;;;;;;;;;;5016249;28;21017;-86
2022/04/18 08:52:58;;;;;;;10.98;6.80;;;;;;;;;;5020631;28;20438;-85
2022/04/18 08:55:24;;;;;;;8.98;6.60;;;;;;;;;;5023117;28;20446;-85
2022/04/18 08:57:52;;;;;;;10.20;6.60;;;;;;;;;;5013678;28;20479;-86
2022/04/18 09:00:18;;;;;;;8.20;6.40;;;;;;;;;;5017942;28;20435;-86
2022/04/18 09:02:45;;;;;;;8.63;6.63;;;;;;;;;;5024556;28;20497;-85
2022/04/18 09:05:11;;;;;;;8.95;6.10;;;;;;;;;;5025054;28;20786;-84
2022/04/18 09:07:41;;;;;;;9.30;5.70;;;;;;;;;;5025510;28;20846;-84
2022/04/18 09:10:08;;;;;;;7.53;5.90;;;;;;;;;;5026970;28;20428;-84
2022/04/18 09:12:34;;;;;;;8.13;5.25;;;;;;;;;;5028016;28;20511;-83
2022/04/18 09:15:02;;;;;;;6.82;5.70;;;;;;;;;;5028385;28;20444;-83
2022/04/18 09:17:29;;;;;;;6.83;5.80;;;;;;;;;;5026518;28;20433;-84
2022/04/18 09:20:05;;;;;;;7.53;5.05;;;;;;;;;;5017611;28;20524;-82
2022/04/18 09:22:31;;;;;;;5.97;5.22;;;;;;;;;;5018369;28;20427;-83
2022/04/18 09:24:58;;;;;;;7.50;5.63;;;;;;;;;;5017124;28;20439;-85
2022/04/18 09:27:29;;;;;;;7.60;5.32;;;;;;;;;;5016457;28;20433;-86
2022/04/18 09:30:03;;;;;;;6.67;5.50;;;;;;;;;;5019187;28;20491;-85
2022/04/18 09:32:29;;;;;;;6.00;5.15;;;;;;;;;;5018903;28;20497;-87
2022/04/18 09:35:00;;;;;;;5.90;4.53;;;;;;;;;;5016832;28;20442;-86
2022/04/18 09:37:28;;;;;;;5.50;4.90;;;;;;;;;;5016853;28;20421;-87
2022/04/18 09:39:55;;;;;;;5.93;4.85;;;;;;;;;;5018269;28;20435;-87
2022/04/18 09:42:22;;;;;;;7.18;5.53;;;;;;;;;;5014751;28;20434;-87
2022/04/18 09:44:48;;;;;;;8.10;6.18;;;;;;;;;;5014993;28;20436;-88
2022/04/18 09:47:17;;;;;;;7.50;5.35;;;;;;;;;;5015279;28;20423;-87
2022/04/18 09:49:44;;;;;;;6.85;5.35;;;;;;;;;;4996525;28;20514;-86
2022/04/18 09:52:11;;;;;;;6.97;5.25;;;;;;;;;;5016632;28;20435;-87
2022/04/18 09:54:41;;;;;;;6.63;4.78;;;;;;;;;;5017111;28;20439;-87
2022/04/18 09:57:07;;;;;;;5.38;4.88;;;;;;;;;;5013744;28;20433;-87
2022/04/18 09:59:33;;;;;;;5.68;5.07;;;;;;;;;;5009259;28;20493;-87
2022/04/18 10:02:00;;;;;;;6.20;4.50;;;;;;;;;;5014084;28;20427;-87
2022/04/18 10:04:28;;;;;;;5.97;4.87;;;;;;;;;;5008590;28;20568;-87
2022/04/18 10:06:56;;;;;;;7.00;5.10;;;;;;;;;;5014767;28;20897;-87
2022/04/18 10:09:23;;;;;;;5.80;4.90;;;;;;;;;;5012384;28;20490;-87
2022/04/18 10:11:50;;;;;;;5.85;4.20;;;;;;;;;;5018493;28;21187;-87
2022/04/18 10:14:16;;;;;;;5.75;3.70;;;;;;;;;;5015627;28;20859;-88
2022/04/18 10:16:43;;;;;;;5.75;4.82;;;;;;;;;;5015188;28;20502;-88
2022/04/18 10:19:19;;;;;;;6.78;4.70;;;;;;;;;;5015072;28;20435;-88
2022/04/18 10:21:49;;;;;;;5.53;4.28;;;;;;;;;;5015615;28;20953;-87
2022/04/18 10:24:32;;;;;;;5.93;4.65;;;;;;;;;;5016174;28;20449;-86
2022/04/18 10:27:24;;;;;;;8.98;4.88;;;;;;;;;;5016346;28;20840;-88
2022/04/18 10:29:54;;;;;;;5.38;4.50;;;;;;;;;;5015995;28;20466;-87
2022/04/18 10:32:22;;;;;;;6.85;5.15;;;;;;;;;;5017017;28;20431;-87
2022/04/18 10:34:49;;;;;;;6.18;4.70;;;;;;;;;;5018671;28;20797;-88
2022/04/18 10:37:17;;;;;;;6.83;5.10;;;;;;;;;;5018267;28;20479;-87
2022/04/18 10:39:43;;;;;;;6.63;4.88;;;;;;;;;;5015365;28;20925;-87
2022/04/18 10:42:20;;;;;;;10.73;8.27;;;;;;;;;;5011433;28;20483;-87
2022/04/18 10:44:58;;;;;;;5.40;4.90;;;;;;;;;;5017545;28;20967;-85
2022/04/18 10:47:24;;;;;;;6.05;4.55;;;;;;;;;;5017324;28;20424;-86
2022/04/18 10:50:05;;;;;;;7.03;4.73;;;;;;;;;;5016563;28;20433;-87
2022/04/18 10:52:33;;;;;;;6.03;4.70;;;;;;;;;;5015706;28;20559;-87
2022/04/18 10:55:00;;;;;;;5.40;4.18;;;;;;;;;;5015821;28;20437;-86
2022/04/18 10:57:27;;;;;;;6.63;5.25;;;;;;;;;;5016297;28;20485;-87
2022/04/18 10:59:54;;;;;;;5.40;4.38;;;;;;;;;;5015083;28;20484;-87
2022/04/18 11:02:36;;;;;;;5.00;4.10;;;;;;;;;;5013842;28;20447;-86
2022/04/18 11:05:02;;;;;;;5.70;4.50;;;;;;;;;;5011865;28;20432;-88
2022/04/18 11:07:38;;;;;;;6.15;4.50;;;;;;;;;;5005904;28;20522;-87
2022/04/18 11:10:18;;;;;;;4.50;4.10;;;;;;;;;;5017093;28;20439;-87
2022/04/18 11:12:44;;;;;;;4.80;4.30;;;;;;;;;;5013654;28;20465;-86
2022/04/18 11:15:10;;;;;;;6.30;4.90;;;;;;;;;;5015149;28;20436;-86
2022/04/18 11:17:38;;;;;;;5.80;4.80;;;;;;;;;;5017422;28;20436;-87
2022/04/18 11:20:25;;;;;;;7.50;5.10;;;;;;;;;;5016187;28;20444;-88
2022/04/18 11:23:06;;;;;;;5.38;4.30;;;;;;;;;;5016388;28;20413;-86
2022/04/18 11:25:47;;;;;;;6.45;5.22;;;;;;;;;;5012646;28;20436;-86
2022/04/18 11:28:15;;;;;;;6.05;4.57;;;;;;;;;;5015852;28;20422;-87
2022/04/18 11:30:41;;;;;;;6.60;4.28;;;;;;;;;;5016837;28;20436;-87
2022/04/18 11:33:08;;;;;;;4.43;4.00;;;;;;;;;;5019500;28;20433;-87
2022/04/18 11:35:35;;;;;;;6.10;4.33;;;;;;;;;;5017224;28;20499;-87
2022/04/18 11:38:06;;;;;;;6.63;4.90;;;;;;;;;;5017973;28;20428;-87
2022/04/18 11:40:36;;;;;;;6.60;4.55;;;;;;;;;;5018159;28;20440;-87
2022/04/18 11:43:02;;;;;;;5.90;4.20;;;;;;;;;;5019053;28;20426;-86
2022/04/18 11:45:30;;;;;;;7.20;5.10;;;;;;;;;;5019861;28;20440;-87
2022/04/18 11:47:57;;;;;;;9.07;5.90;;;;;;;;;;5015878;28;20528;-88
2022/04/18 11:50:23;;;;;;;10.53;6.30;;;;;;;;;;5015985;28;20439;-87
2022/04/18 11:52:50;;;;;;;7.72;5.53;;;;;;;;;;5016500;28;20417;-87
2022/04/18 11:55:17;;;;;;;6.27;4.60;;;;;;;;;;5019567;28;20837;-88
2022/04/18 11:57:45;;;;;;;7.07;4.90;;;;;;;;;;5016432;28;20507;-86
2022/04/18 12:00:12;;;;;;;6.05;4.40;;;;;;;;;;5019613;28;20436;-88
2022/04/18 12:08:09;;;;;;;5.60;4.30;;;;;;;;;;5019448;28;20463;-87
2022/04/18 12:10:37;;;;;;;6.05;4.47;;;;;;;;;;5018252;28;21166;-88
2022/04/18 12:13:04;;;;;;;5.80;4.50;;;;;;;;;;5017317;28;21058;-88
2022/04/18 12:15:31;;;;;;;5.45;4.20;;;;;;;;;;5016988;28;20431;-87
2022/04/18 12:17:59;;;;;;;6.72;4.35;;;;;;;;;;5018245;28;20423;-87
2022/04/18 12:20:26;;;;;;;6.32;3.90;;;;;;;;;;5017514;28;20983;-88
2022/04/18 12:22:53;;;;;;;6.43;4.70;;;;;;;;;;5010701;28;20423;-87
2022/04/18 12:25:21;;;;;;;5.95;4.30;;;;;;;;;;5013156;28;20445;-87
2022/04/18 12:27:47;;;;;;;5.57;3.80;;;;;;;;;;5019423;28;20436;-87
2022/04/18 12:30:14;;;;;;;5.30;4.35;;;;;;;;;;5021825;28;20838;-84
2022/04/18 12:32:41;;;;;;;6.37;4.37;;;;;;;;;;5018770;28;20471;-84
2022/04/18 12:35:09;;;;;;;5.97;4.17;;;;;;;;;;5022801;28;20440;-84
2022/04/18 12:37:35;;;;;;;5.47;3.92;;;;;;;;;;5021173;28;20424;-85
2022/04/18 12:40:11;;;;;;;5.82;4.20;;;;;;;;;;5021714;28;20871;-84
2022/04/18 12:42:38;;;;;;;6.05;4.25;;;;;;;;;;5021427;28;20484;-84
2022/04/18 12:45:04;;;;;;;9.30;4.70;;;;;;;;;;5022737;28;20445;-83
2022/04/18 12:47:32;;;;;;;7.15;4.80;;;;;;;;;;5020781;28;20434;-84
2022/04/18 12:50:10;;;;;;;7.07;4.70;;;;;;;;;;5022395;28;20510;-85
2022/04/18 12:52:45;;;;;;;5.95;4.20;;;;;;;;;;5023792;28;20424;-84
2022/04/18 12:55:11;;;;;;;6.00;4.10;;;;;;;;;;5021298;28;20432;-84
2022/04/18 12:57:38;;;;;;;5.80;4.65;;;;;;;;;;5019406;28;20484;-84
2022/04/18 13:00:12;;;;;;;7.53;4.90;;;;;;;;;;5021706;28;20444;-84
2022/04/18 13:02:39;;;;;;;5.37;4.23;;;;;;;;;;5022705;28;20435;-84
2022/04/18 13:05:05;;;;;;;5.07;4.50;;;;;;;;;;5023868;28;20491;-83
2022/04/18 13:07:37;;;;;;;5.15;3.80;;;;;;;;;;5019644;28;21022;-84
2022/04/18 13:10:04;;;;;;;7.03;4.43;;;;;;;;;;5023819;28;20444;-84
2022/04/18 13:12:30;;;;;;;6.18;4.30;;;;;;;;;;5020125;28;20479;-83
2022/04/18 13:14:58;;;;;;;5.90;4.53;;;;;;;;;;5020515;28;20421;-84
2022/04/18 13:17:24;;;;;;;6.57;4.00;;;;;;;;;;5020984;28;20428;-85
2022/04/18 13:19:50;;;;;;;6.35;4.30;;;;;;;;;;5023043;28;20438;-84
2022/04/18 13:22:17;;;;;;;6.50;4.43;;;;;;;;;;5023882;28;20424;-84
2022/04/18 13:24:45;;;;;;;5.80;3.97;;;;;;;;;;5022267;28;20942;-84
2022/04/18 13:27:22;;;;;;;5.60;4.30;;;;;;;;;;5023427;28;20417;-84
2022/04/18 13:29:49;;;;;;;4.50;3.65;;;;;;;;;;5018272;28;20446;-84
2022/04/18 13:32:15;;;;;;;5.80;4.50;;;;;;;;;;5019909;28;20424;-84
2022/04/18 13:34:41;;;;;;;6.00;4.60;;;;;;;;;;5025680;28;20511;-84
2022/04/18 13:37:07;;;;;;;6.05;4.43;;;;;;;;;;5022529;28;20460;-84
2022/04/18 13:39:34;;;;;;;5.10;4.60;;;;;;;;;;5020604;28;20486;-83
2022/04/18 13:42:01;;;;;;;5.50;4.63;;;;;;;;;;5021070;28;20413;-84
2022/04/18 13:44:27;;;;;;;5.97;4.60;;;;;;;;;;5022271;28;20429;-85
2022/04/18 13:46:54;;;;;;;7.28;5.07;;;;;;;;;;5022403;28;20471;-85
2022/04/18 13:49:20;;;;;;;7.38;4.85;;;;;;;;;;5023240;28;20487;-84
2022/04/18 13:51:46;;;;;;;6.55;5.05;;;;;;;;;;5019767;28;20437;-84
2022/04/18 13:54:14;;;;;;;6.40;4.80;;;;;;;;;;5020675;28;20432;-84
2022/04/18 13:56:41;;;;;;;7.03;4.50;;;;;;;;;;5022302;28;20989;-84
2022/04/18 13:59:08;;;;;;;6.30;4.90;;;;;;;;;;5015220;28;20471;-83
2022/04/18 14:01:34;;;;;;;7.20;5.23;;;;;;;;;;5018710;28;20425;-83
2022/04/18 14:04:01;;;;;;;6.50;4.40;;;;;;;;;;5018856;28;20437;-84
2022/04/18 14:06:28;;;;;;;5.30;4.10;;;;;;;;;;5023661;28;20461;-84
2022/04/18 14:08:55;;;;;;;6.53;4.50;;;;;;;;;;5019744;28;20488;-83
2022/04/18 14:11:21;;;;;;;7.20;4.90;;;;;;;;;;5022129;28;20448;-84
2022/04/18 14:13:48;;;;;;;11.27;5.70;;;;;;;;;;5022176;28;20932;-83
2022/04/18 14:21:45;;;;;;;7.85;5.00;;;;;;;;;;5023875;28;20475;-84
2022/04/18 14:24:12;;;;;;;5.87;4.60;;;;;;;;;;5022635;28;20436;-84
2022/04/18 14:26:39;;;;;;;5.82;5.10;;;;;;;;;;5023337;28;20419;-84
2022/04/18 14:29:06;;;;;;;5.90;4.43;;;;;;;;;;5022369;28;20432;-84
2022/04/18 14:31:34;;;;;;;6.00;4.50;;;;;;;;;;5022468;28;20465;-84
2022/04/18 14:34:00;;;;;;;5.97;4.50;;;;;;;;;;5017920;28;20854;-84
2022/04/18 14:36:27;;;;;;;6.60;4.80;;;;;;;;;;5016169;28;20435;-84
2022/04/18 14:38:53;;;;;;;6.25;4.30;;;;;;;;;;5011787;28;20783;-83
2022/04/18 14:41:19;;;;;;;4.80;3.90;;;;;;;;;;5014265;28;20857;-85
2022/04/18 14:43:45;;;;;;;5.63;4.15;;;;;;;;;;5016726;28;20417;-83
2022/04/18 14:46:12;;;;;;;5.53;4.25;;;;;;;;;;5016347;28;20415;-84
2022/04/18 14:48:39;;;;;;;6.80;4.70;;;;;;;;;;5017691;28;20429;-83
2022/04/18 14:51:06;;;;;;;5.73;4.37;;;;;;;;;;5018152;28;20412;-84
2022/04/18 14:53:32;;;;;;;4.90;4.20;;;;;;;;;;5017495;28;20550;-85
2022/04/18 14:55:58;;;;;;;6.13;4.38;;;;;;;;;;5014818;28;20487;-84
2022/04/18 14:58:25;;;;;;;6.13;4.60;;;;;;;;;;5016859;28;20584;-84
2022/04/18 15:00:51;;;;;;;6.80;4.88;;;;;;;;;;5017824;28;20420;-83
2022/04/18 15:03:17;;;;;;;4.80;4.30;;;;;;;;;;5015046;28;20507;-84
2022/04/18 15:05:45;;;;;;;5.32;3.95;;;;;;;;;;5019189;28;20492;-84